Time;durP1;ratioP1;P1;durP2;ratioP2;P2;SDS_P1;SDS_P2;PMS_P1;PMS_P2;Temp;Humidity;BMP_temperature;BMP_pressure;BME280_temperature;BME280_humidity;BME280_pressure;Samples;Min_cycle;Max_cycle;Signal;HPM_P1;HPM_P2
2024/01/01 00:00:39;;;;;;;17.93;10.67;;;8.20;99.90;;;;;;4969107;28;20202;-67
2024/01/01 00:03:06;;;;;;;21.93;11.50;;;8.20;99.90;;;;;;4967351;28;20195;-67
2024/01/01 00:05:33;;;;;;;11.70;7.28;;;;;;;;;;4970776;28;20198;-68
2024/01/01 00:08:01;;;;;;;7.47;3.60;;;8.20;99.90;;;;;;4973290;28;20204;-67
2024/01/01 00:10:28;;;;;;;9.10;3.33;;;8.20;99.90;;;;;;4960657;28;20204;-68
2024/01/01 00:12:55;;;;;;;8.90;3.45;;;7.80;99.90;;;;;;4976429;28;20210;-68
2024/01/01 00:15:22;;;;;;;6.25;3.47;;;8.20;99.90;;;;;;4941600;28;20211;-67
2024/01/01 00:17:49;;;;;;;7.57;3.92;;;8.20;99.90;;;;;;4971648;28;20585;-67
2024/01/01 00:20:16;;;;;;;6.57;3.57;;;;;;;;;;4977334;28;20386;-68
2024/01/01 00:22:44;;;;;;;7.60;2.90;;;;;;;;;;4971961;28;20213;-67
2024/01/01 00:25:12;;;;;;;10.53;3.33;;;8.20;99.90;;;;;;4956128;28;20261;-68
2024/01/01 00:27:39;;;;;;;5.23;2.80;;;8.20;99.90;;;;;;4980508;28;20195;-68
2024/01/01 00:30:07;;;;;;;6.53;3.67;;;8.20;99.90;;;;;;4938557;28;21027;-68
2024/01/01 00:32:34;;;;;;;6.75;3.42;;;8.20;99.90;;;;;;4970628;28;20233;-67
2024/01/01 00:35:01;;;;;;;5.43;3.43;;;8.20;99.90;;;;;;4976169;28;20238;-67
2024/01/01 00:37:28;;;;;;;7.65;3.28;;;8.20;99.90;;;;;;4971916;28;20226;-67
2024/01/01 00:39:55;;;;;;;10.53;3.63;;;;;;;;;;4959108;28;20466;-67
2024/01/01 00:42:24;;;;;;;7.93;4.10;;;8.10;99.90;;;;;;4961579;28;20225;-67
2024/01/01 00:44:51;;;;;;;6.90;4.30;;;8.10;99.90;;;;;;4969242;28;20785;-67
2024/01/01 00:47:18;;;;;;;8.05;4.13;;;8.10;99.90;;;;;;4932941;28;20600;-67
2024/01/01 00:49:45;;;;;;;10.93;3.93;;;8.20;99.90;;;;;;4975739;28;20378;-67
2024/01/01 00:52:12;;;;;;;7.63;4.07;;;8.50;99.90;;;;;;4955285;28;20206;-67
2024/01/01 00:54:39;;;;;;;8.87;4.40;;;8.30;99.90;;;;;;4963153;28;20219;-67
2024/01/01 00:57:06;;;;;;;11.93;4.23;;;8.20;99.90;;;;;;4968423;28;20210;-67
2024/01/01 00:59:34;;;;;;;6.83;4.10;;;8.20;99.90;;;;;;4980350;28;21219;-67
2024/01/01 01:02:01;;;;;;;8.17;4.20;;;8.30;99.90;;;;;;4933912;28;20326;-67
2024/01/01 01:04:27;;;;;;;7.97;3.90;;;8.50;99.90;;;;;;4975157;28;20366;-67
2024/01/01 01:06:55;;;;;;;12.73;4.15;;;8.30;99.90;;;;;;4979483;28;20287;-67
2024/01/01 01:09:22;;;;;;;5.93;3.67;;;8.20;99.90;;;;;;4959147;28;20862;-67
2024/01/01 01:11:49;;;;;;;5.67;3.30;;;8.30;99.90;;;;;;4968934;28;20813;-68
2024/01/01 01:14:16;;;;;;;7.37;3.73;;;8.30;99.90;;;;;;4975123;28;20282;-68
2024/01/01 01:16:45;;;;;;;5.00;3.47;;;8.30;99.90;;;;;;4950780;28;20241;-68
2024/01/01 01:19:12;;;;;;;7.75;3.58;;;8.20;99.90;;;;;;4972272;28;20223;-67
2024/01/01 01:21:39;;;;;;;5.33;3.23;;;8.20;99.90;;;;;;4978695;28;20204;-67
2024/01/01 01:24:06;;;;;;;8.60;3.03;;;8.50;99.90;;;;;;4973529;28;20207;-67
2024/01/01 01:26:33;;;;;;;6.47;3.00;;;6.70;99.90;;;;;;4960575;28;20203;-67
2024/01/01 01:29:00;;;;;;;6.80;2.75;;;8.30;99.90;;;;;;4979780;28;20199;-67
2024/01/01 01:31:27;;;;;;;5.55;2.50;;;8.00;99.90;;;;;;4947824;28;20210;-68
2024/01/01 01:33:55;;;;;;;7.00;3.00;;;8.30;99.90;;;;;;4973503;28;20236;-68
2024/01/01 01:36:22;;;;;;;6.28;2.67;;;8.30;99.90;;;;;;4978967;28;20203;-68
2024/01/01 01:38:49;;;;;;;8.90;2.97;;;8.20;99.90;;;;;;4972438;28;20227;-67
2024/01/01 01:41:15;;;;;;;5.05;2.90;;;8.20;99.90;;;;;;4967813;28;20217;-67
2024/01/01 01:43:42;;;;;;;6.38;2.95;;;8.60;99.90;;;;;;4967442;28;20230;-67
2024/01/01 01:46:09;;;;;;;8.97;3.13;;;8.20;99.90;;;;;;4980795;28;20207;-67
2024/01/01 01:48:36;;;;;;;5.77;2.40;;;8.20;99.90;;;;;;4937118;28;20207;-67
2024/01/01 01:51:04;;;;;;;6.70;3.33;;;8.20;99.90;;;;;;4975294;28;20203;-67
2024/01/01 01:53:32;;;;;;;5.83;3.03;;;8.20;99.90;;;;;;4975358;28;20233;-68
2024/01/01 01:56:03;;;;;;;7.47;3.07;;;8.20;99.90;;;;;;4970979;28;20213;-67
2024/01/01 01:58:30;;;;;;;6.00;3.30;;;8.80;99.90;;;;;;4965882;28;20230;-67
2024/01/01 02:00:57;;;;;;;5.77;2.43;;;8.20;99.90;;;;;;4980622;28;21791;-67
2024/01/01 02:03:24;;;;;;;6.53;3.00;;;8.30;99.90;;;;;;4935688;28;20211;-67
2024/01/01 02:05:51;;;;;;;4.57;3.20;;;8.20;99.90;;;;;;4977367;28;20203;-67
2024/01/01 02:08:23;;;;;;;4.60;2.70;;;8.20;99.90;;;;;;4982255;28;20664;-67
2024/01/01 02:10:50;;;;;;;5.53;3.40;;;8.20;99.90;;;;;;4975853;28;20781;-67
2024/01/01 02:13:24;;;;;;;11.10;3.70;;;8.10;99.90;;;;;;4960794;28;20210;-67
2024/01/01 02:15:51;;;;;;;9.40;3.42;;;8.20;99.90;;;;;;4976616;28;20752;-67
2024/01/01 02:18:18;;;;;;;4.83;3.17;;;8.20;99.90;;;;;;4953678;28;20206;-68
2024/01/01 02:20:45;;;;;;;6.33;2.83;;;8.10;99.90;;;;;;4958124;28;20803;-67
2024/01/01 02:23:14;;;;;;;4.93;3.27;;;8.10;99.90;;;;;;4976959;28;20199;-67
2024/01/01 02:25:42;;;;;;;8.23;3.10;;;8.30;99.90;;;;;;4980972;28;20205;-67
2024/01/01 02:28:08;;;;;;;6.20;3.00;;;8.30;99.90;;;;;;4967252;28;20215;-67
2024/01/01 02:30:35;;;;;;;5.53;2.77;;;8.30;99.90;;;;;;4967945;28;20218;-67
2024/01/01 02:33:07;;;;;;;8.10;2.87;;;8.30;99.90;;;;;;4978381;28;20201;-67
2024/01/01 02:35:34;;;;;;;10.15;3.88;;;8.30;99.90;;;;;;4937949;28;20246;-68
2024/01/01 02:38:01;;;;;;;5.50;3.17;;;8.30;99.90;;;;;;4981152;28;20202;-67
2024/01/01 02:40:29;;;;;;;5.20;2.83;;;8.30;99.90;;;;;;4974149;28;20233;-68
2024/01/01 02:42:56;;;;;;;11.30;2.95;;;8.30;99.90;;;;;;4968306;28;20195;-67
2024/01/01 02:45:24;;;;;;;7.70;2.90;;;8.30;99.90;;;;;;4971003;28;20199;-68
2024/01/01 02:47:51;;;;;;;10.63;3.28;;;8.30;99.90;;;;;;4975785;28;20203;-67
2024/01/01 02:50:20;;;;;;;8.65;2.90;;;8.40;99.90;;;;;;4952169;28;20227;-68
2024/01/01 02:52:47;;;;;;;4.45;2.92;;;8.20;99.90;;;;;;4968675;28;20206;-67
2024/01/01 02:55:14;;;;;;;6.55;3.10;;;8.30;99.90;;;;;;4973572;28;21352;-67
2024/01/01 02:57:42;;;;;;;11.77;3.10;;;8.30;99.90;;;;;;4985523;28;20198;-67
2024/01/01 03:00:10;;;;;;;10.77;3.28;;;8.30;99.90;;;;;;4962125;28;20235;-68
2024/01/01 03:02:38;;;;;;;4.90;3.00;;;8.30;99.90;;;;;;4978229;28;20233;-68
2024/01/01 03:05:06;;;;;;;9.07;4.17;;;7.50;99.90;;;;;;4947497;28;20204;-67
2024/01/01 03:07:33;;;;;;;8.95;4.18;;;8.30;99.90;;;;;;4975711;28;20199;-67
2024/01/01 03:10:00;;;;;;;10.07;4.13;;;8.30;99.90;;;;;;4974945;28;20207;-67
2024/01/01 03:12:27;;;;;;;11.48;4.00;;;8.30;99.90;;;;;;4978367;28;20206;-67
2024/01/01 03:14:56;;;;;;;13.70;4.30;;;9.00;99.90;;;;;;4964405;28;20203;-67
2024/01/01 03:17:22;;;;;;;12.27;4.63;;;8.30;99.90;;;;;;4980359;28;20755;-67
2024/01/01 03:19:50;;;;;;;9.95;4.30;;;8.30;99.90;;;;;;4937764;28;21344;-68
2024/01/01 03:22:17;;;;;;;11.43;5.00;;;8.40;99.90;;;;;;4970647;28;20215;-67
2024/01/01 03:24:44;;;;;;;13.50;4.85;;;8.40;99.90;;;;;;4970791;28;20294;-67
2024/01/01 03:27:11;;;;;;;13.57;5.05;;;8.30;99.90;;;;;;4982167;28;20234;-67
2024/01/01 03:29:37;;;;;;;9.60;6.25;;;8.30;99.90;;;;;;4976089;28;20213;-67
2024/01/01 03:32:06;;;;;;;10.27;5.28;;;8.40;99.90;;;;;;4965972;28;20214;-68
2024/01/01 03:34:34;;;;;;;13.88;5.63;;;8.40;99.90;;;;;;4947749;28;20227;-68
2024/01/01 03:37:01;;;;;;;12.55;5.35;;;8.30;99.90;;;;;;4972002;28;20205;-68
2024/01/01 03:39:29;;;;;;;12.50;5.85;;;8.30;99.90;;;;;;4968225;28;20223;-67
2024/01/01 03:41:56;;;;;;;12.73;5.82;;;8.30;99.90;;;;;;4975311;28;20230;-67
2024/01/01 03:44:23;;;;;;;14.85;6.38;;;8.30;99.90;;;;;;4979939;28;20343;-67
2024/01/01 03:46:50;;;;;;;13.40;6.47;;;8.40;99.90;;;;;;4964325;28;20221;-67
2024/01/01 03:49:18;;;;;;;12.05;7.07;;;8.10;99.90;;;;;;4982996;28;20214;-67
2024/01/01 03:51:45;;;;;;;16.45;6.70;;;8.40;99.90;;;;;;4948781;28;20309;-67
2024/01/01 03:54:12;;;;;;;15.20;7.10;;;8.40;99.90;;;;;;4972176;28;20203;-67
2024/01/01 03:56:39;;;;;;;15.27;7.68;;;8.20;99.90;;;;;;4970935;28;20202;-67
2024/01/01 03:59:06;;;;;;;13.52;6.57;;;8.40;99.90;;;;;;4978581;28;20196;-67
2024/01/01 04:01:35;;;;;;;17.13;7.78;;;8.30;99.90;;;;;;4968237;28;20236;-68
2024/01/01 04:04:03;;;;;;;16.63;8.13;;;8.40;99.90;;;;;;4974841;28;20202;-67
2024/01/01 04:06:32;;;;;;;23.05;8.52;;;8.30;99.90;;;;;;4946543;28;20215;-67
2024/01/01 04:08:59;;;;;;;15.95;8.10;;;8.60;99.90;;;;;;4974822;28;20737;-67
2024/01/01 04:11:26;;;;;;;18.13;7.73;;;;;;;;;;4969058;28;20310;-67
2024/01/01 04:13:53;;;;;;;15.73;7.82;;;8.40;99.90;;;;;;4982503;28;20218;-67
2024/01/01 04:16:22;;;;;;;18.87;7.53;;;8.30;99.90;;;;;;4979453;28;20207;-67
2024/01/01 04:18:50;;;;;;;17.73;8.00;;;8.40;99.90;;;;;;4966520;28;20765;-67
2024/01/01 04:21:17;;;;;;;15.77;8.05;;;8.30;99.90;;;;;;4946437;28;20241;-67
2024/01/01 04:23:45;;;;;;;15.77;7.57;;;8.30;99.90;;;;;;4967777;28;20206;-68
2024/01/01 04:26:13;;;;;;;20.60;8.35;;;8.40;99.90;;;;;;4977504;28;20207;-67
2024/01/01 04:28:40;;;;;;;15.32;7.40;;;8.30;99.90;;;;;;4973053;28;20583;-67
2024/01/01 04:31:06;;;;;;;18.03;8.83;;;8.30;99.90;;;;;;4979702;28;20712;-67
2024/01/01 04:33:33;;;;;;;13.82;7.65;;;8.30;99.90;;;;;;4968895;28;20578;-67
2024/01/01 04:36:00;;;;;;;14.75;7.90;;;7.70;99.90;;;;;;4978395;28;20668;-67
2024/01/01 04:38:27;;;;;;;17.13;7.77;;;8.30;99.90;;;;;;4941236;28;20709;-67
2024/01/01 04:40:55;;;;;;;14.57;8.37;;;8.30;99.90;;;;;;4969203;28;20227;-68
2024/01/01 04:43:22;;;;;;;15.48;8.32;;;8.30;99.90;;;;;;4963111;28;20211;-68
2024/01/01 04:45:49;;;;;;;16.70;8.60;;;8.30;99.90;;;;;;4975845;28;21049;-67
2024/01/01 04:48:17;;;;;;;15.75;7.97;;;8.30;99.90;;;;;;4966465;28;21409;-67
2024/01/01 04:50:44;;;;;;;17.63;8.60;;;8.30;99.90;;;;;;4974269;28;20297;-67
2024/01/01 04:53:11;;;;;;;15.70;7.43;;;;;;;;;;4941933;28;21767;-67
2024/01/01 04:55:38;;;;;;;13.82;7.60;;;8.30;99.90;;;;;;4970696;28;20209;-67
2024/01/01 04:58:06;;;;;;;16.70;7.97;;;8.70;99.90;;;;;;4973243;28;20199;-67
2024/01/01 05:00:33;;;;;;;18.35;8.30;;;8.30;99.90;;;;;;4978621;28;20230;-67
2024/01/01 05:03:00;;;;;;;15.15;7.65;;;8.20;99.90;;;;;;4964496;28;20290;-67
2024/01/01 05:05:27;;;;;;;12.13;7.35;;;8.30;99.90;;;;;;4971957;28;20285;-67
2024/01/01 05:07:54;;;;;;;14.00;7.17;;;8.30;99.90;;;;;;4948458;28;20203;-68
2024/01/01 05:10:21;;;;;;;15.75;6.57;;;8.30;99.90;;;;;;4965965;28;20981;-67
2024/01/01 05:12:48;;;;;;;13.60;6.28;;;8.20;99.90;;;;;;4965753;28;20206;-67
2024/01/01 05:15:16;;;;;;;8.30;4.37;;;8.30;99.90;;;;;;4977896;28;20203;-67
2024/01/01 05:17:43;;;;;;;11.23;3.97;;;6.50;99.90;;;;;;4976317;28;20309;-67
2024/01/01 05:20:10;;;;;;;7.43;3.45;;;8.20;99.90;;;;;;4958178;28;21299;-68
2024/01/01 05:22:37;;;;;;;7.73;3.03;;;8.20;99.90;;;;;;4978081;28;20242;-67
2024/01/01 05:25:05;;;;;;;3.93;2.47;;;8.10;99.90;;;;;;4944901;28;20210;-67
2024/01/01 05:27:32;;;;;;;9.20;2.60;;;8.10;99.90;;;;;;4972317;28;20219;-67
2024/01/01 05:29:59;;;;;;;4.60;2.50;;;8.10;99.90;;;;;;4975031;28;20787;-67
2024/01/01 05:32:27;;;;;;;3.83;1.80;;;8.10;99.90;;;;;;4980006;28;20213;-67
2024/01/01 05:34:54;;;;;;;3.50;1.77;;;8.10;99.90;;;;;;4968015;28;20231;-67
2024/01/01 05:37:21;;;;;;;8.03;2.40;;;8.10;99.90;;;;;;4976643;28;20651;-67
2024/01/01 05:39:48;;;;;;;5.40;1.50;;;8.10;99.90;;;;;;4944206;28;20217;-67
2024/01/01 05:42:15;;;;;;;4.13;1.60;;;8.00;99.90;;;;;;4975560;28;20207;-67
2024/01/01 05:44:42;;;;;;;4.67;1.23;;;8.10;99.90;;;;;;4967525;28;20207;-67
2024/01/01 05:47:08;;;;;;;7.73;1.80;;;8.00;99.90;;;;;;4981234;28;20211;-67
2024/01/01 05:49:37;;;;;;;6.17;1.63;;;8.00;99.90;;;;;;4976710;28;21191;-67
2024/01/01 05:52:04;;;;;;;2.27;1.13;;;8.10;99.90;;;;;;4966120;28;20211;-67
2024/01/01 05:54:31;;;;;;;2.67;1.23;;;8.10;99.90;;;;;;4945922;28;20204;-67
2024/01/01 05:56:58;;;;;;;2.37;1.33;;;8.10;99.90;;;;;;4982585;28;20546;-67
2024/01/01 05:59:25;;;;;;;4.33;1.27;;;8.00;99.90;;;;;;4972057;28;20300;-67
2024/01/01 06:01:51;;;;;;;3.83;1.10;;;8.00;99.90;;;;;;4976954;28;20623;-67
2024/01/01 06:04:19;;;;;;;1.13;0.83;;;;;;;;;;4979981;28;20222;-68
2024/01/01 06:06:47;;;;;;;6.93;1.80;;;7.90;99.90;;;;;;4970915;28;20211;-67
2024/01/01 06:09:14;;;;;;;2.40;1.33;;;7.50;99.90;;;;;;4943836;28;20208;-67
2024/01/01 06:11:41;;;;;;;2.65;1.25;;;8.00;99.90;;;;;;4975339;28;20222;-68
2024/01/01 06:14:08;;;;;;;2.17;1.23;;;7.90;99.90;;;;;;4979597;28;20203;-67
2024/01/01 06:16:34;;;;;;;4.73;1.13;;;8.00;99.90;;;;;;4969778;28;20288;-67
2024/01/01 06:19:01;;;;;;;2.78;1.27;;;7.90;99.90;;;;;;4981092;28;20205;-67
2024/01/01 06:21:28;;;;;;;3.83;1.80;;;7.90;99.90;;;;;;4979732;28;20321;-67
2024/01/01 06:23:56;;;;;;;2.87;1.53;;;7.90;99.90;;;;;;4970695;28;20211;-67
2024/01/01 06:26:23;;;;;;;8.03;1.93;;;7.80;99.90;;;;;;4944416;28;20210;-67
2024/01/01 06:28:50;;;;;;;6.17;2.13;;;7.80;99.90;;;;;;4985381;28;20946;-68
2024/01/01 06:31:17;;;;;;;3.30;2.13;;;;;;;;;;4969670;28;20217;-67
2024/01/01 06:33:44;;;;;;;4.00;2.40;;;7.80;99.90;;;;;;4982471;28;20235;-67
2024/01/01 06:36:11;;;;;;;6.27;2.17;;;7.80;99.90;;;;;;4979192;28;20338;-67
2024/01/01 06:38:38;;;;;;;4.00;2.20;;;7.80;99.90;;;;;;4970571;28;23374;-67
2024/01/01 06:41:07;;;;;;;4.60;2.23;;;7.80;99.90;;;;;;4947015;28;20225;-67
2024/01/01 06:43:33;;;;;;;7.00;2.60;;;7.70;99.90;;;;;;4983367;28;20202;-67
2024/01/01 06:46:00;;;;;;;5.27;2.80;;;7.70;99.90;;;;;;4969125;28;20199;-67
2024/01/01 06:48:28;;;;;;;4.28;2.05;;;8.60;99.90;;;;;;4978877;28;20279;-67
2024/01/01 06:50:55;;;;;;;5.40;2.73;;;7.70;99.90;;;;;;4980198;28;20206;-67
2024/01/01 06:53:22;;;;;;;4.57;2.40;;;7.70;99.90;;;;;;4971545;28;20201;-68
2024/01/01 06:55:49;;;;;;;4.07;2.33;;;8.00;99.90;;;;;;4967304;28;20213;-68
2024/01/01 06:58:17;;;;;;;2.87;1.90;;;7.60;99.90;;;;;;4944044;28;20611;-67
2024/01/01 07:00:44;;;;;;;2.57;1.90;;;7.60;99.90;;;;;;4980283;28;20337;-67
2024/01/01 07:03:11;;;;;;;7.30;2.10;;;7.60;99.90;;;;;;4966140;28;20203;-67
2024/01/01 07:05:37;;;;;;;5.57;2.60;;;7.60;99.90;;;;;;4977208;28;20306;-68
2024/01/01 07:08:05;;;;;;;6.87;2.10;;;7.60;99.90;;;;;;4977002;28;20195;-67
2024/01/01 07:10:32;;;;;;;7.90;2.70;;;7.70;99.90;;;;;;4966456;28;20212;-68
2024/01/01 07:12:59;;;;;;;4.50;2.43;;;7.60;99.90;;;;;;4943264;28;20257;-68
2024/01/01 07:15:27;;;;;;;5.43;2.30;;;7.50;99.90;;;;;;4979686;28;20210;-68
2024/01/01 07:17:54;;;;;;;3.97;1.90;;;7.50;99.90;;;;;;4973048;28;20312;-68
2024/01/01 07:20:20;;;;;;;5.73;2.30;;;7.50;99.90;;;;;;4979497;28;20219;-68
2024/01/01 07:22:47;;;;;;;4.60;2.17;;;7.50;99.90;;;;;;4980712;28;20245;-68
2024/01/01 07:25:14;;;;;;;4.80;2.43;;;7.50;99.90;;;;;;4974677;28;20201;-68
2024/01/01 07:27:42;;;;;;;4.67;2.03;;;7.50;99.90;;;;;;4937071;28;21029;-68
2024/01/01 07:30:09;;;;;;;5.33;2.43;;;7.50;99.90;;;;;;4980081;28;20972;-68
2024/01/01 07:32:37;;;;;;;6.90;2.03;;;7.50;99.90;;;;;;4966313;28;20668;-68
2024/01/01 07:35:08;;;;;;;6.00;2.37;;;7.50;99.90;;;;;;4974559;28;20256;-68
2024/01/01 07:37:35;;;;;;;5.60;2.00;;;7.50;99.90;;;;;;4980710;28;20268;-68
2024/01/01 07:40:02;;;;;;;3.93;1.73;;;7.50;99.90;;;;;;4976834;28;20198;-68
2024/01/01 07:42:29;;;;;;;4.13;1.90;;;7.50;99.90;;;;;;4962949;28;20237;-68
2024/01/01 07:44:55;;;;;;;5.53;2.20;;;7.40;99.90;;;;;;4941098;28;20211;-68
2024/01/01 07:47:22;;;;;;;3.97;2.20;;;7.40;99.90;;;;;;4976176;28;20222;-68
2024/01/01 07:49:50;;;;;;;4.50;1.70;;;7.40;99.90;;;;;;4966343;28;20226;-68
2024/01/01 07:52:17;;;;;;;8.60;2.17;;;7.50;99.90;;;;;;4979503;28;20210;-68
2024/01/01 07:54:44;;;;;;;3.40;1.77;;;7.40;99.90;;;;;;4977694;28;20203;-68
2024/01/01 07:57:11;;;;;;;5.13;2.13;;;7.30;99.90;;;;;;4975932;28;20702;-69
2024/01/01 07:59:38;;;;;;;4.70;2.40;;;7.40;99.90;;;;;;4935937;28;20217;-69
2024/01/01 08:02:05;;;;;;;6.23;2.20;;;7.50;99.90;;;;;;4977749;28;20240;-68
2024/01/01 08:04:32;;;;;;;6.30;2.40;;;7.40;99.90;;;;;;4962234;28;20198;-68
2024/01/01 08:07:00;;;;;;;4.30;2.07;;;7.40;99.90;;;;;;4982359;28;20200;-69
2024/01/01 08:09:27;;;;;;;8.93;2.00;;;7.20;99.90;;;;;;4979903;28;20689;-69
2024/01/01 08:11:54;;;;;;;5.17;2.23;;;7.40;99.90;;;;;;4977802;28;20750;-68
2024/01/01 08:14:21;;;;;;;7.37;1.83;;;7.30;99.90;;;;;;4934007;28;20806;-69
2024/01/01 08:16:48;;;;;;;6.57;1.90;;;7.40;99.90;;;;;;4982748;28;20210;-69
2024/01/01 08:19:15;;;;;;;5.43;1.60;;;7.50;99.90;;;;;;4967368;28;20199;-69
2024/01/01 08:21:42;;;;;;;7.40;1.83;;;8.20;99.90;;;;;;4972042;28;20222;-69
2024/01/01 08:24:10;;;;;;;7.73;1.87;;;7.50;99.90;;;;;;4976205;28;20209;-68
2024/01/01 08:26:37;;;;;;;4.87;1.93;;;7.50;99.90;;;;;;4973300;28;20223;-69
2024/01/01 08:29:04;;;;;;;2.83;1.93;;;;;;;;;;4959615;28;20203;-68
2024/01/01 08:31:31;;;;;;;5.03;2.17;;;7.40;99.90;;;;;;4942515;28;20202;-69
2024/01/01 08:33:58;;;;;;;5.20;2.30;;;7.80;99.90;;;;;;4974959;28;20231;-69
2024/01/01 08:36:25;;;;;;;5.30;1.73;;;7.40;99.90;;;;;;4955977;28;20206;-68
2024/01/01 08:38:53;;;;;;;2.87;1.43;;;7.50;99.90;;;;;;4980067;28;20960;-69
2024/01/01 08:41:21;;;;;;;5.63;1.93;;;7.50;99.90;;;;;;4975228;28;20226;-69
2024/01/01 08:43:56;;;;;;;9.68;1.67;;;7.60;99.90;;;;;;4966550;28;20217;-69
2024/01/01 08:46:24;;;;;;;9.43;1.90;;;7.90;99.90;;;;;;4938139;28;20218;-68
2024/01/01 08:48:51;;;;;;;5.67;1.90;;;7.60;99.90;;;;;;4978238;28;20297;-68
2024/01/01 08:51:18;;;;;;;12.17;2.30;;;7.60;99.90;;;;;;4951885;28;20211;-69
2024/01/01 08:53:45;;;;;;;7.57;2.03;;;7.70;99.90;;;;;;4963273;28;20226;-69
2024/01/01 08:56:12;;;;;;;10.43;1.83;;;7.30;99.90;;;;;;4971186;28;20206;-68
2024/01/01 08:58:40;;;;;;;5.23;1.43;;;7.70;99.90;;;;;;4976229;28;20222;-69
2024/01/01 09:01:07;;;;;;;7.33;1.70;;;7.70;99.90;;;;;;4942484;28;20211;-68
2024/01/01 09:03:34;;;;;;;6.27;1.60;;;7.70;99.90;;;;;;4979120;28;20199;-69
2024/01/01 09:06:00;;;;;;;7.83;1.83;;;7.80;99.90;;;;;;4974613;28;20205;-69
2024/01/01 09:08:28;;;;;;;3.43;1.20;;;7.80;99.90;;;;;;4977264;28;20202;-69
2024/01/01 09:10:56;;;;;;;4.37;1.47;;;7.90;99.90;;;;;;4984235;28;20199;-69
2024/01/01 09:13:23;;;;;;;5.97;1.53;;;7.90;99.90;;;;;;4970508;28;20214;-68
2024/01/01 09:15:52;;;;;;;4.10;1.43;;;7.90;99.90;;;;;;4943625;28;20707;-68
2024/01/01 09:18:19;;;;;;;5.63;1.73;;;;;;;;;;4973067;28;20215;-68
2024/01/01 09:20:46;;;;;;;7.53;1.40;;;7.90;99.90;;;;;;4967780;28;20199;-69
2024/01/01 09:23:13;;;;;;;4.00;1.50;;;7.40;99.90;;;;;;4983347;28;20233;-68
2024/01/01 09:25:41;;;;;;;4.60;1.90;;;7.90;99.90;;;;;;4977176;28;20213;-68
2024/01/01 09:28:08;;;;;;;2.67;1.47;;;7.90;99.90;;;;;;4983048;28;20209;-68
2024/01/01 09:30:35;;;;;;;7.40;1.70;;;8.00;99.90;;;;;;4944636;28;20211;-69
2024/01/01 09:33:03;;;;;;;5.87;1.40;;;8.00;99.90;;;;;;4981401;28;20198;-68
2024/01/01 09:35:30;;;;;;;7.43;1.83;;;7.90;99.90;;;;;;4970084;28;20232;-69
2024/01/01 09:37:58;;;;;;;4.80;1.30;;;8.10;99.90;;;;;;4979962;28;20191;-69
2024/01/01 09:40:24;;;;;;;8.43;1.60;;;8.00;99.90;;;;;;4977831;28;20230;-68
2024/01/01 09:42:52;;;;;;;6.17;1.60;;;8.00;99.90;;;;;;4976951;28;20317;-69
2024/01/01 09:45:19;;;;;;;5.20;2.03;;;8.10;99.90;;;;;;4949220;28;20242;-69
2024/01/01 09:47:47;;;;;;;3.63;1.77;;;8.00;99.90;;;;;;4973874;28;20614;-68
2024/01/01 09:50:15;;;;;;;8.97;1.80;;;8.00;99.90;;;;;;4975605;28;20210;-68
2024/01/01 09:52:42;;;;;;;5.07;1.57;;;8.10;99.90;;;;;;4959935;28;20195;-69
2024/01/01 09:55:09;;;;;;;3.33;1.40;;;8.10;99.90;;;;;;4976670;28;20229;-68
2024/01/01 09:57:36;;;;;;;4.03;1.52;;;8.10;99.90;;;;;;4967382;28;20219;-69
2024/01/01 10:00:05;;;;;;;7.57;2.10;;;8.00;99.90;;;;;;4974738;28;20315;-68
2024/01/01 10:02:32;;;;;;;3.47;1.80;;;8.00;99.90;;;;;;4933811;28;20231;-68
2024/01/01 10:05:11;;;;;;;5.40;1.80;;;8.10;99.90;;;;;;4978894;28;20209;-69
2024/01/01 10:07:39;;;;;;;3.97;1.60;;;8.10;99.90;;;;;;4965381;28;20214;-69
2024/01/01 10:10:07;;;;;;;3.73;1.87;;;8.10;99.90;;;;;;4969876;28;20223;-69
2024/01/01 10:12:34;;;;;;;6.40;1.77;;;7.90;99.90;;;;;;4978624;28;20209;-68
2024/01/01 10:15:01;;;;;;;5.63;1.90;;;8.10;99.90;;;;;;4980552;28;20211;-69
2024/01/01 10:17:29;;;;;;;10.37;1.83;;;8.10;99.90;;;;;;4924861;28;20345;-69
2024/01/01 10:19:59;;;;;;;3.03;1.40;;;8.10;99.90;;;;;;4976854;28;20219;-69
2024/01/01 10:22:30;;;;;;;7.63;1.80;;;8.10;99.90;;;;;;4967956;28;20612;-68
2024/01/01 10:25:11;;;;;;;5.47;1.70;;;8.10;99.90;;;;;;4980994;28;20215;-69
2024/01/01 10:27:38;;;;;;;5.57;1.77;;;8.10;99.90;;;;;;4980670;28;20897;-68
2024/01/01 10:30:05;;;;;;;6.03;1.93;;;8.10;99.90;;;;;;4980859;28;20196;-68
2024/01/01 10:32:34;;;;;;;4.10;2.17;;;8.00;99.90;;;;;;4945071;28;20684;-69
2024/01/01 10:35:03;;;;;;;6.00;1.87;;;8.00;99.90;;;;;;4980786;28;20257;-68
2024/01/01 10:37:31;;;;;;;5.93;2.03;;;7.80;99.90;;;;;;4964902;28;20211;-69
2024/01/01 10:40:05;;;;;;;4.60;2.10;;;8.10;99.90;;;;;;4987703;28;20210;-69
2024/01/01 10:42:33;;;;;;;7.33;2.30;;;8.80;99.90;;;;;;4978504;28;20241;-69
2024/01/01 10:45:03;;;;;;;4.93;1.53;;;8.10;99.90;;;;;;4980851;28;20218;-69
2024/01/01 10:47:31;;;;;;;5.50;1.90;;;8.00;99.90;;;;;;4944529;28;20212;-69
2024/01/01 10:50:11;;;;;;;4.03;1.60;;;8.10;99.90;;;;;;4984260;28;20246;-69
2024/01/01 10:52:51;;;;;;;6.93;1.73;;;8.10;99.90;;;;;;4985121;28;20199;-69
2024/01/01 10:55:43;;;;;;;2.27;1.50;;;8.10;99.90;;;;;;4972817;28;20210;-69
2024/01/01 10:58:24;;;;;;;6.50;1.67;;;8.10;99.90;;;;;;4980108;28;20207;-69
2024/01/01 11:01:02;;;;;;;4.73;1.60;;;8.10;99.90;;;;;;4968560;28;20214;-69
2024/01/01 11:03:30;;;;;;;2.20;1.87;;;8.10;99.90;;;;;;4947900;28;20230;-68
2024/01/01 11:05:57;;;;;;;4.10;1.77;;;8.10;99.90;;;;;;4984975;28;20207;-68
2024/01/01 11:08:28;;;;;;;4.03;1.70;;;8.20;99.90;;;;;;4980550;28;20832;-68
2024/01/01 11:10:57;;;;;;;4.00;1.80;;;8.20;99.90;;;;;;4977881;28;20213;-69
2024/01/01 11:13:52;;;;;;;4.70;2.00;;;8.20;99.90;;;;;;4985706;28;20203;-68
2024/01/01 11:16:19;;;;;;;9.47;4.03;;;8.20;99.90;;;;;;4988815;28;20213;-69
2024/01/01 11:18:47;;;;;;;7.30;2.83;;;8.20;99.90;;;;;;4939477;28;21763;-69
2024/01/01 11:21:28;;;;;;;10.10;2.40;;;8.40;99.90;;;;;;4976649;28;20196;-69
2024/01/01 11:23:54;;;;;;;7.43;2.65;;;8.30;99.90;;;;;;4985184;28;20230;-69
2024/01/01 11:26:34;;;;;;;6.65;3.28;;;9.60;99.90;;;;;;4967713;28;20203;-68
2024/01/01 11:29:25;;;;;;;4.85;1.70;;;8.50;99.90;;;;;;4979021;28;20305;-68
2024/01/01 11:32:00;;;;;;;1.85;1.40;;;8.40;99.90;;;;;;4967807;28;20237;-68
2024/01/01 11:34:27;;;;;;;6.78;1.83;;;8.40;99.90;;;;;;4946617;28;20238;-68
2024/01/01 11:36:54;;;;;;;7.55;1.70;;;8.40;99.90;;;;;;4965290;28;20245;-68
2024/01/01 11:39:24;;;;;;;7.30;2.05;;;8.60;99.90;;;;;;4977915;28;20218;-68
2024/01/01 11:41:52;;;;;;;3.97;1.63;;;9.10;99.90;;;;;;4964119;28;20210;-68
2024/01/01 11:44:23;;;;;;;6.90;1.60;;;8.50;99.90;;;;;;4979995;28;20229;-68
2024/01/01 11:46:51;;;;;;;2.00;1.50;;;;;;;;;;4984085;28;20208;-68
2024/01/01 11:49:18;;;;;;;2.53;1.35;;;8.50;99.90;;;;;;4963744;28;20339;-68
2024/01/01 11:51:50;;;;;;;3.80;1.58;;;9.00;99.90;;;;;;4941888;28;20241;-68
2024/01/01 11:54:17;;;;;;;4.53;1.92;;;8.50;99.90;;;;;;4977536;28;20286;-68
2024/01/01 11:56:46;;;;;;;2.50;1.40;;;8.50;99.90;;;;;;4952029;28;20219;-68
2024/01/01 11:59:14;;;;;;;6.70;1.90;;;8.60;99.90;;;;;;4987374;28;20207;-68
2024/01/01 12:01:42;;;;;;;6.47;1.55;;;8.60;99.90;;;;;;4977700;28;20287;-68
2024/01/01 12:04:10;;;;;;;4.00;1.40;;;8.60;99.90;;;;;;4975732;28;20266;-68
2024/01/01 12:06:38;;;;;;;8.35;1.70;;;8.60;99.90;;;;;;4941340;28;20222;-68
2024/01/01 12:09:10;;;;;;;2.70;1.48;;;8.60;99.90;;;;;;4974632;28;20223;-68
2024/01/01 12:11:38;;;;;;;4.80;1.80;;;8.60;99.90;;;;;;4967901;28;20223;-68
2024/01/01 12:14:05;;;;;;;6.38;1.67;;;8.60;99.90;;;;;;4934976;28;20230;-68
2024/01/01 12:16:33;;;;;;;4.00;1.80;;;8.60;99.90;;;;;;4957461;28;20213;-68
2024/01/01 12:19:01;;;;;;;4.03;1.85;;;8.60;99.90;;;;;;4967917;28;20577;-68
2024/01/01 12:21:38;;;;;;;3.45;1.10;;;8.80;99.90;;;;;;4919434;28;20760;-68
2024/01/01 12:24:07;;;;;;;11.65;1.77;;;8.80;99.90;;;;;;4975992;28;20277;-68
2024/01/01 12:26:34;;;;;;;4.03;1.90;;;8.60;99.90;;;;;;4966487;28;20203;-68
2024/01/01 12:29:15;;;;;;;4.22;1.63;;;8.50;99.90;;;;;;4962651;28;20214;-68
2024/01/01 12:31:44;;;;;;;4.28;1.83;;;9.00;99.90;;;;;;4962303;28;20364;-67
2024/01/01 12:34:16;;;;;;;3.65;1.73;;;8.60;99.90;;;;;;4939095;28;20380;-68
2024/01/01 12:36:45;;;;;;;5.15;1.10;;;8.50;99.90;;;;;;4905306;28;20349;-67
2024/01/01 12:39:12;;;;;;;2.70;1.27;;;8.50;99.90;;;;;;4955680;28;20680;-67
2024/01/01 12:41:39;;;;;;;2.97;1.10;;;8.40;99.90;;;;;;4965583;28;20206;-67
2024/01/01 12:44:06;;;;;;;4.88;1.60;;;7.80;99.90;;;;;;4962473;28;20395;-67
2024/01/01 12:46:33;;;;;;;3.65;1.20;;;8.50;99.90;;;;;;4962405;28;20212;-68
2024/01/01 12:49:03;;;;;;;4.47;1.80;;;8.50;99.90;;;;;;4954821;28;20213;-68
2024/01/01 12:51:31;;;;;;;5.40;1.80;;;8.10;99.90;;;;;;4909414;28;28093;-68
2024/01/01 12:53:58;;;;;;;4.93;1.60;;;8.40;99.90;;;;;;4962769;28;20214;-68
2024/01/01 12:56:26;;;;;;;6.33;1.37;;;8.40;99.90;;;;;;4961078;28;21016;-68
2024/01/01 12:58:53;;;;;;;4.57;1.38;;;8.50;99.90;;;;;;4947902;28;21166;-68
2024/01/01 13:01:21;;;;;;;2.47;1.40;;;8.40;99.90;;;;;;4973805;28;20202;-68